createdAt,value
2023-04-26T00:02:18.618Z,3.73
2023-04-26T00:04:47.938Z,4.30
2023-04-26T00:07:15.928Z,3.90
2023-04-26T00:09:44.718Z,6.70
2023-04-26T00:12:13.056Z,6.13
2023-04-26T00:14:40.785Z,6.07
2023-04-26T00:17:08.551Z,4.10
2023-04-26T00:19:38.614Z,4.70
2023-04-26T00:22:06.650Z,5.83
2023-04-26T00:24:34.516Z,4.00
2023-04-26T00:27:05.294Z,5.90
2023-04-26T00:29:33.001Z,2.93
2023-04-26T00:32:00.960Z,4.67
2023-04-26T00:34:33.326Z,3.90
2023-04-26T00:37:02.487Z,4.13
2023-04-26T00:39:30.508Z,6.57
2023-04-26T00:41:58.240Z,4.93
2023-04-26T00:44:26.013Z,7.90
2023-04-26T00:46:54.697Z,4.83
2023-04-26T00:49:25.139Z,3.90
2023-04-26T00:51:53.988Z,6.47
2023-04-26T00:54:23.166Z,3.40
2023-04-26T00:56:53.320Z,5.73
2023-04-26T00:59:21.712Z,4.90
2023-04-26T01:01:49.569Z,9.07
2023-04-26T01:04:17.621Z,7.03
2023-04-26T01:06:46.456Z,5.30
2023-04-26T01:09:15.875Z,5.17
2023-04-26T01:11:46.266Z,5.63
2023-04-26T01:14:15.640Z,6.07
2023-04-26T01:16:47.567Z,4.07
2023-04-26T01:19:16.553Z,5.37
2023-04-26T01:21:46.485Z,9.17
2023-04-26T01:24:16.638Z,7.20
2023-04-26T01:26:47.065Z,3.83
2023-04-26T01:29:16.998Z,4.30
2023-04-26T01:31:45.554Z,4.57
2023-04-26T01:34:13.426Z,7.23
2023-04-26T01:36:41.632Z,7.57
2023-04-26T01:39:09.435Z,6.00
2023-04-26T01:41:38.574Z,5.83
2023-04-26T01:44:06.711Z,9.33
2023-04-26T01:46:34.556Z,6.80
2023-04-26T01:49:02.388Z,9.73
2023-04-26T01:51:31.328Z,6.80
2023-04-26T01:53:59.945Z,5.30
2023-04-26T01:56:27.749Z,8.33
2023-04-26T01:58:57.401Z,7.97
2023-04-26T02:01:25.515Z,6.83
2023-04-26T02:03:53.299Z,5.60
2023-04-26T02:06:21.330Z,5.50
2023-04-26T02:08:49.370Z,6.27
2023-04-26T02:11:17.324Z,8.80
2023-04-26T02:13:45.040Z,5.43
2023-04-26T02:16:16.118Z,4.63
2023-04-26T02:18:44.386Z,4.67
2023-04-26T02:21:13.318Z,6.57
2023-04-26T02:23:41.094Z,5.93
2023-04-26T02:26:11.646Z,6.30
2023-04-26T02:28:39.740Z,4.33
2023-04-26T02:31:07.720Z,6.23
2023-04-26T02:33:36.940Z,5.23
2023-04-26T02:36:05.995Z,5.40
2023-04-26T02:38:35.063Z,5.93
2023-04-26T02:41:05.361Z,5.20
2023-04-26T02:43:34.412Z,6.30
2023-04-26T02:46:02.417Z,5.03
2023-04-26T02:48:31.822Z,4.70
2023-04-26T02:51:01.013Z,5.07
2023-04-26T02:53:28.857Z,4.70
2023-04-26T02:55:56.784Z,6.77
2023-04-26T02:58:24.587Z,5.13
2023-04-26T03:00:54.564Z,4.73
2023-04-26T03:03:23.117Z,4.80
2023-04-26T03:05:51.572Z,5.23
2023-04-26T03:08:20.886Z,2.90
2023-04-26T03:10:48.846Z,6.90
2023-04-26T03:13:16.554Z,6.03
2023-04-26T03:15:45.863Z,3.63
2023-04-26T03:18:13.689Z,5.30
2023-04-26T03:20:41.958Z,5.40
2023-04-26T03:23:10.249Z,3.97
2023-04-26T03:25:39.601Z,4.77
2023-04-26T03:28:07.381Z,4.50
2023-04-26T03:30:35.463Z,2.93
2023-04-26T03:33:03.614Z,7.03
2023-04-26T03:35:31.618Z,5.40
2023-04-26T03:38:00.852Z,5.00
2023-04-26T03:40:28.576Z,6.37
2023-04-26T03:42:58.036Z,4.43
2023-04-26T03:45:26.806Z,4.27
2023-04-26T03:47:54.635Z,6.87
2023-04-26T03:50:22.608Z,5.50
2023-04-26T03:52:50.919Z,5.33
2023-04-26T03:55:18.757Z,3.80
2023-04-26T03:57:47.419Z,4.67
2023-04-26T04:00:17.500Z,5.23
2023-04-26T04:02:45.651Z,4.50
2023-04-26T04:05:22.079Z,3.83
2023-04-26T04:07:49.959Z,7.27
2023-04-26T04:10:17.764Z,6.77
2023-04-26T04:12:46.597Z,6.07
2023-04-26T04:15:14.981Z,4.50
2023-04-26T04:17:48.925Z,6.47
2023-04-26T04:20:16.851Z,3.93
2023-04-26T04:22:44.735Z,4.47
2023-04-26T04:25:13.865Z,4.07
2023-04-26T04:27:43.809Z,4.97
2023-04-26T04:30:12.883Z,6.57
2023-04-26T04:32:44.427Z,8.20
2023-04-26T04:35:14.462Z,4.43
2023-04-26T04:37:43.861Z,6.70
2023-04-26T04:40:13.342Z,4.57
2023-04-26T04:42:44.546Z,4.43
2023-04-26T04:45:12.667Z,6.10
2023-04-26T04:47:40.937Z,4.73
2023-04-26T04:50:09.849Z,7.87
2023-04-26T04:52:39.485Z,4.47
2023-04-26T04:55:07.922Z,5.20
2023-04-26T04:57:41.413Z,7.33
2023-04-26T05:00:12.854Z,3.17
2023-04-26T05:02:47.785Z,6.30
2023-04-26T05:05:17.012Z,4.77
2023-04-26T05:07:46.442Z,5.17
2023-04-26T05:10:15.929Z,6.97
2023-04-26T05:12:43.711Z,6.47
2023-04-26T05:15:11.924Z,4.83
2023-04-26T05:17:40.742Z,7.37
2023-04-26T05:20:17.415Z,7.70
2023-04-26T05:22:47.718Z,5.70
2023-04-26T05:25:17.132Z,6.00
2023-04-26T05:27:47.440Z,8.03
2023-04-26T05:30:32.335Z,8.63
2023-04-26T05:33:18.593Z,7.17
2023-04-26T05:36:21.224Z,6.17
2023-04-26T05:38:49.189Z,6.40
2023-04-26T05:41:17.049Z,6.23
2023-04-26T05:43:44.992Z,5.97
2023-04-26T05:46:13.067Z,7.23
2023-04-26T05:48:41.698Z,5.47
2023-04-26T05:51:09.466Z,7.77
2023-04-26T05:53:38.779Z,8.63
2023-04-26T05:56:07.736Z,10.70
2023-04-26T05:58:35.986Z,7.33
2023-04-26T06:01:04.613Z,11.13
2023-04-26T06:03:32.816Z,10.13
2023-04-26T06:06:01.426Z,10.17
2023-04-26T06:08:29.396Z,13.00
2023-04-26T06:10:58.497Z,12.67
2023-04-26T06:13:28.328Z,12.13
2023-04-26T06:15:56.361Z,8.80
2023-04-26T06:18:24.088Z,8.30
2023-04-26T06:20:52.365Z,10.83
2023-04-26T06:23:20.412Z,13.73
2023-04-26T06:25:48.262Z,11.57
2023-04-26T06:28:17.668Z,13.33
2023-04-26T06:30:45.913Z,16.43
2023-04-26T06:33:13.780Z,15.13
2023-04-26T06:35:41.921Z,11.73
2023-04-26T06:38:12.627Z,15.57
2023-04-26T06:40:40.363Z,13.93
2023-04-26T06:43:09.150Z,14.10
2023-04-26T06:45:38.187Z,13.43
2023-04-26T06:48:07.275Z,13.23
2023-04-26T06:50:38.989Z,13.13
2023-04-26T06:53:07.049Z,15.37
2023-04-26T06:55:35.153Z,14.73
2023-04-26T06:58:02.954Z,14.23
2023-04-26T07:00:30.900Z,14.70
2023-04-26T07:03:00.094Z,16.33
2023-04-26T07:05:27.956Z,20.80
2023-04-26T07:07:55.905Z,15.73
2023-04-26T07:10:23.915Z,15.10
2023-04-26T07:12:51.717Z,17.63
2023-04-26T07:15:19.476Z,14.87
2023-04-26T07:17:47.225Z,16.20
2023-04-26T07:20:19.822Z,12.60
2023-04-26T07:22:47.652Z,16.53
2023-04-26T07:25:15.901Z,14.70
2023-04-26T07:27:43.774Z,15.83
2023-04-26T07:30:12.193Z,13.53
2023-04-26T07:32:39.943Z,12.87
2023-04-26T07:35:10.474Z,15.47
2023-04-26T07:37:39.597Z,12.30
2023-04-26T07:40:10.385Z,13.33
2023-04-26T07:42:38.197Z,10.23
2023-04-26T07:45:06.872Z,15.67
2023-04-26T07:47:34.640Z,6.90
2023-04-26T07:50:02.492Z,11.60
2023-04-26T07:52:30.302Z,20.20
2023-04-26T07:54:59.408Z,10.47
2023-04-26T07:57:27.101Z,14.07
2023-04-26T07:59:54.864Z,12.73
2023-04-26T08:02:32.937Z,16.03
2023-04-26T08:05:10.761Z,13.80
2023-04-26T08:07:38.645Z,13.90
2023-04-26T08:10:08.902Z,13.90
2023-04-26T08:12:38.093Z,14.40
2023-04-26T08:15:06.957Z,13.03
2023-04-26T08:17:34.777Z,12.57
2023-04-26T08:20:04.929Z,17.30
2023-04-26T08:22:32.700Z,13.53
2023-04-26T08:25:00.416Z,15.13
2023-04-26T08:27:29.516Z,13.70
2023-04-26T08:29:57.202Z,14.90
2023-04-26T08:32:24.966Z,14.93
2023-04-26T08:34:52.911Z,15.47
2023-04-26T08:37:20.852Z,14.53
2023-04-26T08:39:48.623Z,14.10
2023-04-26T08:42:18.586Z,14.17
2023-04-26T08:44:47.709Z,17.50
2023-04-26T08:47:19.034Z,16.80
2023-04-26T08:49:50.267Z,10.50
2023-04-26T08:52:22.872Z,9.70
2023-04-26T08:54:52.132Z,8.83
2023-04-26T08:57:21.066Z,14.17
2023-04-26T08:59:51.281Z,11.67
2023-04-26T09:02:21.368Z,12.43
2023-04-26T09:04:50.027Z,10.93
2023-04-26T09:07:22.373Z,12.30
2023-04-26T09:09:51.508Z,11.60
2023-04-26T09:12:21.229Z,13.50
2023-04-26T09:14:50.487Z,9.37
2023-04-26T09:17:28.593Z,8.43
2023-04-26T09:19:56.672Z,8.07
2023-04-26T09:22:32.301Z,4.73
2023-04-26T09:25:00.938Z,7.13
2023-04-26T09:27:34.725Z,8.03
2023-04-26T09:30:08.109Z,11.43
2023-04-26T09:32:46.692Z,7.20
2023-04-26T09:35:31.559Z,5.90
2023-04-26T09:38:08.605Z,4.90
2023-04-26T09:40:41.030Z,9.63
2023-04-26T09:43:09.784Z,7.40
2023-04-26T09:45:47.431Z,8.33
2023-04-26T09:48:17.573Z,4.57
2023-04-26T09:50:46.848Z,7.03
2023-04-26T09:53:27.532Z,3.93
2023-04-26T09:55:55.505Z,4.80
2023-04-26T09:58:23.966Z,6.17
2023-04-26T10:00:54.456Z,7.23
2023-04-26T10:03:24.214Z,7.30
2023-04-26T10:05:52.604Z,5.97
2023-04-26T10:08:20.453Z,5.77
2023-04-26T10:10:49.005Z,3.40
2023-04-26T10:13:17.364Z,4.37
2023-04-26T10:15:45.200Z,7.37
2023-04-26T10:18:14.328Z,5.40
2023-04-26T10:20:45.704Z,4.80
2023-04-26T10:23:26.520Z,8.10
2023-04-26T10:25:55.788Z,6.17
2023-04-26T10:28:57.181Z,6.80
2023-04-26T10:32:06.388Z,5.93
2023-04-26T10:34:37.046Z,8.83
2023-04-26T10:37:09.376Z,5.63
2023-04-26T10:39:37.455Z,6.87
2023-04-26T10:42:26.564Z,6.23
2023-04-26T10:44:55.996Z,7.20
2023-04-26T10:47:27.102Z,6.00
2023-04-26T10:50:05.529Z,6.10
2023-04-26T10:52:34.488Z,6.77
2023-04-26T10:55:02.658Z,5.20
2023-04-26T10:57:50.883Z,5.77
2023-04-26T11:00:31.934Z,5.07
2023-04-26T11:03:05.009Z,5.10
2023-04-26T11:05:56.365Z,3.80
2023-04-26T11:08:28.550Z,6.13
2023-04-26T11:11:11.801Z,6.17
2023-04-26T11:13:41.345Z,6.47
2023-04-26T11:16:11.371Z,7.97
2023-04-26T11:18:40.800Z,6.80
2023-04-26T11:21:10.828Z,6.43
2023-04-26T11:23:38.691Z,3.65
2023-04-26T11:26:08.342Z,9.43
2023-04-26T11:28:37.801Z,6.20
2023-04-26T11:31:07.391Z,5.40
2023-04-26T11:33:35.206Z,7.50
2023-04-26T11:36:03.106Z,5.73
2023-04-26T11:38:32.203Z,7.65
2023-04-26T11:41:01.989Z,5.77
2023-04-26T11:43:36.871Z,5.00
2023-04-26T11:46:05.805Z,4.00
2023-04-26T11:48:35.690Z,6.72
2023-04-26T11:51:05.576Z,13.57
2023-04-26T11:53:38.733Z,9.97
2023-04-26T11:56:15.293Z,3.60
2023-04-26T11:58:45.734Z,4.93
2023-04-26T12:01:13.580Z,6.22
2023-04-26T12:03:41.541Z,8.40
2023-04-26T12:06:09.372Z,10.20
2023-04-26T12:08:38.601Z,7.97
2023-04-26T12:11:06.363Z,7.05
2023-04-26T12:13:34.045Z,8.93
2023-04-26T12:18:37.674Z,5.83
2023-04-26T12:21:06.449Z,7.47
2023-04-26T12:23:41.874Z,5.10
2023-04-26T12:26:12.251Z,4.93
2023-04-26T12:28:40.087Z,6.30
2023-04-26T12:31:08.447Z,5.65
2023-04-26T12:33:36.737Z,5.55
2023-04-26T12:36:09.239Z,6.23
2023-04-26T12:38:37.288Z,6.85
2023-04-26T12:41:07.225Z,8.23
2023-04-26T12:43:35.023Z,8.57
2023-04-26T12:46:02.863Z,11.50
2023-04-26T12:48:30.749Z,8.25
2023-04-26T12:50:58.592Z,6.63
2023-04-26T12:53:26.461Z,9.50
2023-04-26T12:55:54.387Z,7.03
2023-04-26T12:58:23.448Z,6.13
2023-04-26T13:00:51.685Z,6.33
2023-04-26T13:03:19.522Z,5.43
2023-04-26T13:05:47.380Z,7.00
2023-04-26T13:08:15.440Z,7.07
2023-04-26T13:10:43.552Z,6.93
2023-04-26T13:13:11.252Z,7.43
2023-04-26T13:15:41.084Z,6.00
2023-04-26T13:18:08.837Z,5.93
2023-04-26T13:20:36.985Z,9.95
2023-04-26T13:23:04.911Z,5.90
2023-04-26T13:25:32.685Z,7.10
2023-04-26T13:28:00.511Z,6.07
2023-04-26T13:30:28.317Z,5.78
2023-04-26T13:32:59.960Z,8.52
2023-04-26T13:35:28.298Z,5.90
2023-04-26T13:37:56.348Z,7.45
2023-04-26T13:40:24.108Z,5.47
2023-04-26T13:42:52.039Z,7.07
2023-04-26T13:45:20.224Z,4.47
2023-04-26T13:47:48.017Z,9.18
2023-04-26T13:50:17.629Z,4.38
2023-04-26T13:52:45.539Z,6.03
2023-04-26T13:55:14.361Z,4.18
2023-04-26T13:57:42.441Z,8.93
2023-04-26T14:00:11.889Z,5.63
2023-04-26T14:02:42.061Z,4.90
2023-04-26T14:05:10.553Z,6.57
2023-04-26T14:07:40.293Z,5.63
2023-04-26T14:10:09.084Z,5.72
2023-04-26T14:12:37.301Z,8.38
2023-04-26T14:15:06.595Z,5.28
2023-04-26T14:17:34.598Z,6.63
2023-04-26T14:20:02.501Z,7.38
2023-04-26T14:22:30.578Z,8.45
2023-04-26T14:24:59.751Z,4.50
2023-04-26T14:27:27.671Z,8.50
2023-04-26T14:29:55.851Z,4.35
2023-04-26T14:32:24.505Z,7.03
2023-04-26T14:34:52.240Z,6.95
2023-04-26T14:37:22.811Z,4.53
2023-04-26T14:39:51.667Z,5.57
2023-04-26T14:42:21.118Z,5.75
2023-04-26T14:44:48.863Z,5.38
2023-04-26T14:47:16.734Z,6.30
2023-04-26T14:49:44.607Z,7.20
2023-04-26T14:52:12.369Z,7.13
2023-04-26T14:54:40.916Z,4.63
2023-04-26T14:57:09.098Z,5.53
2023-04-26T14:59:38.446Z,4.70
2023-04-26T15:02:06.292Z,4.85
2023-04-26T15:04:34.344Z,4.55
2023-04-26T15:07:02.691Z,4.65
2023-04-26T15:09:30.927Z,3.53
2023-04-26T15:11:58.679Z,5.80
2023-04-26T15:14:26.923Z,5.45
2023-04-26T15:16:56.184Z,4.53
2023-04-26T15:19:24.635Z,7.80
2023-04-26T15:21:52.428Z,4.07
2023-04-26T15:24:20.453Z,5.22
2023-04-26T15:26:48.224Z,6.43
2023-04-26T15:29:18.851Z,7.63
2023-04-26T15:31:46.709Z,6.20
2023-04-26T15:34:16.520Z,6.38
2023-04-26T15:36:44.238Z,7.07
2023-04-26T15:39:12.115Z,4.65
2023-04-26T15:41:39.883Z,6.45
2023-04-26T15:44:07.694Z,5.20
2023-04-26T15:46:37.993Z,5.15
2023-04-26T15:49:06.026Z,4.05
2023-04-26T15:51:35.296Z,7.20
2023-04-26T15:54:03.091Z,4.43
2023-04-26T15:56:30.837Z,4.97
2023-04-26T15:58:58.546Z,3.78
2023-04-26T16:01:26.501Z,6.00
2023-04-26T16:03:54.419Z,5.38
2023-04-26T16:06:22.464Z,6.53
2023-04-26T16:08:51.541Z,4.03
2023-04-26T16:11:19.282Z,5.32
2023-04-26T16:13:51.711Z,3.22
2023-04-26T16:16:19.832Z,8.80
2023-04-26T16:18:47.777Z,4.40
2023-04-26T16:21:16.148Z,4.55
2023-04-26T16:23:43.786Z,4.72
2023-04-26T16:26:13.010Z,3.80
2023-04-26T16:28:40.799Z,5.10
2023-04-26T16:31:08.564Z,4.68
2023-04-26T16:33:36.330Z,4.25
2023-04-26T16:36:04.420Z,3.67
2023-04-26T16:38:32.155Z,5.78
2023-04-26T16:41:01.690Z,4.30
2023-04-26T16:43:32.628Z,5.53
2023-04-26T16:46:02.145Z,9.07
2023-04-26T16:48:31.754Z,5.90
2023-04-26T16:50:59.823Z,4.47
2023-04-26T16:53:27.564Z,4.93
2023-04-26T16:55:55.535Z,3.80
2023-04-26T16:58:24.024Z,8.35
2023-04-26T17:00:53.602Z,6.00
2023-04-26T17:03:22.010Z,4.68
2023-04-26T17:05:50.164Z,5.43
2023-04-26T17:08:19.248Z,6.18
2023-04-26T17:10:47.849Z,5.57
2023-04-26T17:13:15.947Z,6.18
2023-04-26T17:15:44.217Z,4.95
2023-04-26T17:18:13.440Z,4.75
2023-04-26T17:20:41.906Z,4.43
2023-04-26T17:23:09.961Z,6.07
2023-04-26T17:25:37.707Z,5.43
2023-04-26T17:28:05.572Z,5.00
2023-04-26T17:30:33.392Z,6.70
2023-04-26T17:33:01.296Z,3.80
2023-04-26T17:35:30.777Z,5.93
2023-04-26T17:37:58.599Z,4.63
2023-04-26T17:40:26.520Z,5.18
2023-04-26T17:42:54.309Z,8.18
2023-04-26T17:45:22.236Z,6.57
2023-04-26T17:47:50.025Z,5.43
2023-04-26T17:50:20.882Z,6.13
2023-04-26T17:52:50.174Z,5.63
2023-04-26T17:55:18.209Z,6.40
2023-04-26T17:57:46.681Z,6.72
2023-04-26T18:00:15.707Z,5.17
2023-04-26T18:02:43.903Z,4.63
2023-04-26T18:05:13.202Z,5.90
2023-04-26T18:07:40.872Z,5.30
2023-04-26T18:10:10.927Z,6.85
2023-04-26T18:12:38.783Z,6.20
2023-04-26T18:15:07.815Z,6.20
2023-04-26T18:17:36.248Z,6.40
2023-04-26T18:20:04.717Z,5.03
2023-04-26T18:22:32.521Z,7.93
2023-04-26T18:25:00.393Z,7.88
2023-04-26T18:27:29.562Z,6.22
2023-04-26T18:29:57.283Z,4.63
2023-04-26T18:32:25.174Z,6.53
2023-04-26T18:34:53.013Z,4.60
2023-04-26T18:37:20.844Z,7.37
2023-04-26T18:39:49.341Z,5.57
2023-04-26T18:42:17.210Z,5.60
2023-04-26T18:44:46.349Z,5.70
2023-04-26T18:47:17.367Z,5.70
2023-04-26T18:49:45.198Z,6.53
2023-04-26T18:52:13.005Z,6.10
2023-04-26T18:54:44.164Z,7.80
2023-04-26T18:57:12.047Z,5.57
2023-04-26T18:59:39.850Z,4.43
2023-04-26T19:02:09.053Z,6.27
2023-04-26T19:04:37.069Z,6.77
2023-04-26T19:07:04.967Z,7.63
2023-04-26T19:09:42.823Z,7.80
2023-04-26T19:12:18.645Z,6.15
2023-04-26T19:14:46.429Z,7.87
2023-04-26T19:17:15.562Z,7.00
2023-04-26T19:19:43.336Z,8.55
2023-04-26T19:22:11.139Z,6.75
2023-04-26T19:24:38.859Z,4.33
2023-04-26T19:27:06.614Z,5.67
2023-04-26T19:29:34.405Z,5.60
2023-04-26T19:32:04.501Z,9.10
2023-04-26T19:34:34.854Z,6.43
2023-04-26T19:37:03.497Z,9.60
2023-04-26T19:39:31.320Z,7.90
2023-04-26T19:42:01.291Z,7.77
2023-04-26T19:44:29.052Z,5.23
2023-04-26T19:46:56.909Z,4.67
2023-04-26T19:49:25.754Z,7.53
2023-04-26T19:51:55.849Z,6.13
2023-04-26T19:54:24.541Z,6.20
2023-04-26T19:56:52.273Z,6.03
2023-04-26T19:59:20.622Z,6.80
2023-04-26T20:01:48.371Z,6.07
2023-04-26T20:04:16.460Z,6.60
2023-04-26T20:06:44.485Z,5.20
2023-04-26T20:09:13.710Z,5.63
2023-04-26T20:11:41.484Z,4.97
2023-04-26T20:14:09.231Z,4.87
2023-04-26T20:16:37.044Z,9.43
2023-04-26T20:19:05.110Z,7.23
2023-04-26T20:21:33.217Z,6.83
2023-04-26T20:24:00.967Z,3.93
2023-04-26T20:26:30.133Z,6.50
2023-04-26T20:28:57.912Z,5.60
2023-04-26T20:31:25.808Z,8.30
2023-04-26T20:33:53.558Z,5.63
2023-04-26T20:36:21.394Z,6.60
2023-04-26T20:38:49.130Z,5.57
2023-04-26T20:41:16.903Z,5.75
2023-04-26T20:43:46.083Z,4.00
2023-04-26T20:46:13.993Z,4.93
2023-04-26T20:48:42.009Z,6.03
2023-04-26T20:51:09.696Z,8.13
2023-04-26T20:53:37.425Z,6.83
2023-04-26T20:56:05.605Z,6.68
2023-04-26T20:58:33.481Z,5.85
2023-04-26T21:01:04.249Z,7.93
2023-04-26T21:03:34.505Z,5.03
2023-04-26T21:06:02.622Z,6.77
2023-04-26T21:08:30.435Z,5.60
2023-04-26T21:10:58.157Z,6.53
2023-04-26T21:13:26.026Z,6.77
2023-04-26T21:15:53.819Z,6.97
2023-04-26T21:18:22.954Z,6.25
2023-04-26T21:20:50.732Z,5.30
2023-04-26T21:23:18.513Z,7.15
2023-04-26T21:25:47.859Z,7.47
2023-04-26T21:28:15.777Z,5.87
2023-04-26T21:30:43.515Z,5.47
2023-04-26T21:33:12.414Z,7.10
2023-04-26T21:35:41.599Z,8.27
2023-04-26T21:38:09.430Z,5.13
2023-04-26T21:40:37.145Z,7.40
2023-04-26T21:43:05.704Z,6.03
2023-04-26T21:45:33.769Z,10.75
2023-04-26T21:48:01.571Z,6.03
2023-04-26T21:50:29.315Z,7.33
2023-04-26T21:52:58.516Z,5.13
2023-04-26T21:55:26.831Z,8.20
2023-04-26T21:57:54.651Z,7.53
2023-04-26T22:00:22.469Z,5.97
2023-04-26T22:02:51.431Z,8.63
2023-04-26T22:05:19.329Z,7.77
2023-04-26T22:07:47.172Z,6.53
2023-04-26T22:10:16.461Z,5.03
2023-04-26T22:12:44.278Z,5.70
2023-04-26T22:15:12.375Z,8.83
2023-04-26T22:17:40.143Z,5.67
2023-04-26T22:20:09.087Z,8.20
2023-04-26T22:22:36.910Z,8.70
2023-04-26T22:25:05.079Z,5.73
2023-04-26T22:27:34.279Z,5.83
2023-04-26T22:30:12.446Z,7.70
2023-04-26T22:32:52.571Z,5.77
2023-04-26T22:35:20.903Z,6.35
2023-04-26T22:37:48.874Z,8.77
2023-04-26T22:40:17.573Z,6.90
2023-04-26T22:42:46.856Z,7.20
2023-04-26T22:45:14.622Z,8.50
2023-04-26T22:47:42.578Z,6.83
2023-04-26T22:50:11.554Z,8.27
2023-04-26T22:52:39.344Z,7.43
2023-04-26T22:55:08.145Z,7.87
2023-04-26T22:57:36.606Z,7.40
2023-04-26T23:00:09.526Z,9.60
2023-04-26T23:02:37.494Z,5.80
2023-04-26T23:05:08.814Z,8.10
2023-04-26T23:07:36.704Z,7.07
2023-04-26T23:10:05.068Z,10.27
2023-04-26T23:12:33.384Z,5.57
2023-04-26T23:15:01.451Z,8.07
2023-04-26T23:17:32.081Z,8.23
2023-04-26T23:20:00.959Z,9.67
2023-04-26T23:22:28.874Z,7.10
2023-04-26T23:24:56.677Z,8.77
2023-04-26T23:27:24.849Z,6.00
2023-04-26T23:29:52.643Z,5.80
2023-04-26T23:32:20.374Z,5.97
2023-04-26T23:34:50.618Z,6.63
2023-04-26T23:37:18.487Z,5.43
2023-04-26T23:39:46.266Z,8.60
2023-04-26T23:42:14.021Z,9.67
2023-04-26T23:44:42.005Z,6.83
2023-04-26T23:47:10.352Z,7.47
2023-04-26T23:49:38.082Z,8.57
2023-04-26T23:52:07.326Z,6.43
2023-04-26T23:54:35.136Z,6.23
2023-04-26T23:57:04.124Z,5.47
2023-04-26T23:59:32.225Z,7.90
